Time;durP1;ratioP1;P1;durP2;ratioP2;P2;SDS_P1;SDS_P2;PMS_P1;PMS_P2;Temp;Humidity;BMP_temperature;BMP_pressure;BME280_temperature;BME280_humidity;BME280_pressure;Samples;Min_cycle;Max_cycle;Signal;HPM_P1;HPM_P2
2022/07/05 00:01:34;;;;;;;4.50;1.35;;;;;;;;;;10234933;28;20075;-66
2022/07/05 00:06:30;;;;;;;2.47;0.95;;;;;;;;;;10233392;28;20050;-68
2022/07/05 00:11:26;;;;;;;4.25;0.90;;;;;;;;;;10225079;28;20191;-68
2022/07/05 00:16:23;;;;;;;8.40;1.55;;;;;;;;;;10226429;28;20471;-68
2022/07/05 00:21:19;;;;;;;3.20;1.20;;;;;;;;;;10238020;28;20097;-68
2022/07/05 00:26:15;;;;;;;5.32;1.10;;;;;;;;;;10241831;28;20107;-65
2022/07/05 00:31:12;;;;;;;3.60;1.00;;;;;;;;;;10254215;28;20097;-67
2022/07/05 00:36:08;;;;;;;5.07;1.10;;;;;;;;;;10266277;28;20053;-68
2022/07/05 00:41:04;;;;;;;3.20;1.13;;;;;;;;;;10236854;28;20045;-67
2022/07/05 00:46:01;;;;;;;5.40;1.30;;;;;;;;;;10231746;28;20096;-68
2022/07/05 00:50:57;;;;;;;3.90;1.05;;;;;;;;;;10245943;28;20517;-67
2022/07/05 00:55:54;;;;;;;3.75;0.90;;;;;;;;;;10233194;28;20417;-65
2022/07/05 01:00:50;;;;;;;8.07;2.00;;;;;;;;;;10238675;28;20398;-65
2022/07/05 01:05:47;;;;;;;4.35;1.40;;;;;;;;;;10235425;28;20041;-67
2022/07/05 01:10:43;;;;;;;4.30;1.02;;;;;;;;;;10242630;28;20075;-66
2022/07/05 01:15:40;;;;;;;6.00;1.55;;;;;;;;;;10227848;28;20571;-66
2022/07/05 01:20:36;;;;;;;6.93;1.65;;;;;;;;;;10225397;28;20045;-66
2022/07/05 01:25:33;;;;;;;7.38;1.77;;;;;;;;;;10229921;28;20054;-66
2022/07/05 01:30:29;;;;;;;3.20;1.27;;;;;;;;;;10241945;28;20128;-65
2022/07/05 01:35:26;;;;;;;2.92;1.42;;;;;;;;;;10224733;28;20522;-65
2022/07/05 01:40:22;;;;;;;5.75;1.60;;;;;;;;;;10238923;28;20052;-66
2022/07/05 01:50:49;;;;;;;7.03;1.52;;;;;;;;;;10232679;28;20115;-65
2022/07/05 01:55:46;;;;;;;7.10;1.60;;;;;;;;;;10229043;28;20091;-65
2022/07/05 02:00:46;;;;;;;6.63;1.58;;;;;;;;;;10244812;28;20132;-64
2022/07/05 02:05:43;;;;;;;4.35;1.50;;;;;;;;;;10243346;28;20061;-64
2022/07/05 02:10:40;;;;;;;7.05;1.50;;;;;;;;;;10241827;28;20438;-66
2022/07/05 02:15:37;;;;;;;8.50;1.80;;;;;;;;;;10242656;28;20931;-67
2022/07/05 02:20:34;;;;;;;3.83;1.45;;;;;;;;;;10244523;28;20091;-66
2022/07/05 02:25:31;;;;;;;4.95;2.17;;;;;;;;;;10232537;28;20041;-67
2022/07/05 02:30:27;;;;;;;3.65;1.30;;;;;;;;;;10244021;28;20160;-67
2022/07/05 02:35:24;;;;;;;9.70;1.90;;;;;;;;;;10237908;28;20045;-67
2022/07/05 02:40:20;;;;;;;4.57;1.52;;;;;;;;;;10239339;28;20077;-65
2022/07/05 02:45:16;;;;;;;4.45;1.40;;;;;;;;;;10229901;28;20080;-65
2022/07/05 02:50:13;;;;;;;5.07;2.13;;;;;;;;;;10238898;28;20216;-65
2022/07/05 02:55:09;;;;;;;9.10;2.42;;;;;;;;;;10241853;28;20541;-65
2022/07/05 03:00:06;;;;;;;4.82;1.95;;;;;;;;;;10232801;28;20065;-67
2022/07/05 03:05:02;;;;;;;5.43;2.17;;;;;;;;;;10234463;28;20115;-67
2022/07/05 03:09:59;;;;;;;6.78;1.73;;;;;;;;;;10239109;28;20115;-68
2022/07/05 03:14:55;;;;;;;5.90;1.85;;;;;;;;;;10228060;28;20088;-67
2022/07/05 03:19:51;;;;;;;6.90;2.03;;;;;;;;;;10220580;28;20577;-67
2022/07/05 03:24:48;;;;;;;4.57;2.00;;;;;;;;;;10260834;28;20465;-66
2022/07/05 03:29:44;;;;;;;7.40;2.38;;;;;;;;;;10255633;28;20128;-66
2022/07/05 03:34:40;;;;;;;6.72;2.10;;;;;;;;;;10249511;28;20536;-68
2022/07/05 03:39:37;;;;;;;6.85;2.35;;;;;;;;;;10251033;28;20120;-68
2022/07/05 03:44:34;;;;;;;6.30;2.63;;;;;;;;;;10256838;28;20047;-68
2022/07/05 03:49:30;;;;;;;6.32;2.80;;;;;;;;;;10234121;28;20529;-68
2022/07/05 03:54:27;;;;;;;7.55;2.72;;;;;;;;;;10269995;28;20119;-68
2022/07/05 03:59:23;;;;;;;6.25;2.20;;;;;;;;;;10273907;28;20194;-68
2022/07/05 04:04:19;;;;;;;5.60;1.92;;;;;;;;;;10239017;28;20104;-68
2022/07/05 04:09:16;;;;;;;5.28;2.17;;;;;;;;;;10249952;28;20051;-68
2022/07/05 04:14:12;;;;;;;11.23;2.95;;;;;;;;;;10264946;28;20598;-68
2022/07/05 04:19:08;;;;;;;7.80;2.92;;;;;;;;;;10257438;28;20739;-68
2022/07/05 04:24:05;;;;;;;5.70;2.53;;;;;;;;;;10245273;28;20219;-68
2022/07/05 04:29:01;;;;;;;6.60;3.00;;;;;;;;;;10251702;28;20136;-68
2022/07/05 04:33:57;;;;;;;5.53;2.10;;;;;;;;;;10268066;28;20513;-68
2022/07/05 04:38:54;;;;;;;7.93;1.83;;;;;;;;;;10244616;28;20064;-67
2022/07/05 04:43:50;;;;;;;5.63;1.80;;;;;;;;;;10254413;28;20623;-67
2022/07/05 04:48:47;;;;;;;8.07;2.05;;;;;;;;;;10237818;28;20041;-68
2022/07/05 04:53:43;;;;;;;8.35;2.35;;;;;;;;;;10241793;28;20480;-67
2022/07/05 04:58:39;;;;;;;7.32;2.20;;;;;;;;;;10252153;28;20497;-67
2022/07/05 05:03:36;;;;;;;7.55;1.90;;;;;;;;;;10246490;28;20128;-67
2022/07/05 05:08:32;;;;;;;5.05;1.80;;;;;;;;;;10283610;28;20049;-68
2022/07/05 05:13:29;;;;;;;7.45;1.77;;;;;;;;;;10276109;28;20040;-67
2022/07/05 05:18:27;;;;;;;6.05;1.95;;;;;;;;;;10268090;28;20106;-67
2022/07/05 05:23:23;;;;;;;5.72;1.90;;;;;;;;;;10267246;28;20391;-67
2022/07/05 05:28:20;;;;;;;5.85;2.17;;;;;;;;;;10244982;28;20132;-67
2022/07/05 05:33:16;;;;;;;6.32;1.85;;;;;;;;;;10259245;28;20084;-67
2022/07/05 05:38:13;;;;;;;7.72;1.75;;;;;;;;;;10262976;28;20053;-67
2022/07/05 05:43:09;;;;;;;4.45;1.40;;;;;;;;;;10241017;28;20137;-67
2022/07/05 05:48:05;;;;;;;6.30;1.88;;;;;;;;;;10249382;28;20500;-67
2022/07/05 05:53:02;;;;;;;7.70;1.98;;;;;;;;;;10263414;28;20127;-68
2022/07/05 05:58:15;;;;;;;4.25;1.50;;;;;;;;;;10255616;28;20079;-67
2022/07/05 06:03:11;;;;;;;6.30;1.75;;;;;;;;;;10253693;28;20519;-67
2022/07/05 06:08:08;;;;;;;5.05;1.38;;;;;;;;;;10259966;28;20657;-67
2022/07/05 06:13:05;;;;;;;6.72;1.50;;;;;;;;;;10273998;28;20127;-67
2022/07/05 06:18:01;;;;;;;5.38;1.10;;;;;;;;;;10258195;28;20041;-67
2022/07/05 06:22:58;;;;;;;6.07;1.40;;;;;;;;;;10264888;28;20460;-67
2022/07/05 06:27:56;;;;;;;5.10;1.30;;;;;;;;;;10282878;28;20049;-67
2022/07/05 06:32:52;;;;;;;4.97;1.17;;;;;;;;;;10264394;28;20053;-67
2022/07/05 06:37:51;;;;;;;2.88;1.15;;;;;;;;;;10238057;28;20601;-67
2022/07/05 06:42:47;;;;;;;3.05;1.00;;;;;;;;;;10250232;28;20084;-67
2022/07/05 06:47:44;;;;;;;7.28;1.20;;;;;;;;;;10270853;28;20131;-68
2022/07/05 06:52:40;;;;;;;3.10;1.20;;;;;;;;;;10288440;28;20398;-68
2022/07/05 06:57:36;;;;;;;7.82;1.45;;;;;;;;;;10277321;28;20560;-68
2022/07/05 07:02:33;;;;;;;3.42;1.27;;;;;;;;;;10281439;28;20041;-67
2022/07/05 07:12:46;;;;;;;3.55;0.98;;;;;;;;;;10278098;28;20091;-68
2022/07/05 07:17:42;;;;;;;5.85;1.10;;;;;;;;;;10289457;28;20571;-67
2022/07/05 07:22:39;;;;;;;5.50;1.30;;;;;;;;;;10258524;28;20095;-68
2022/07/05 07:27:42;;;;;;;3.28;0.55;;;;;;;;;;10288661;28;20048;-68
2022/07/05 07:32:39;;;;;;;1.95;0.57;;;;;;;;;;10246456;28;20038;-68
2022/07/05 07:37:35;;;;;;;4.80;1.25;;;;;;;;;;10235738;28;20128;-67
2022/07/05 07:42:32;;;;;;;3.60;0.82;;;;;;;;;;10254046;28;20083;-67
2022/07/05 07:47:29;;;;;;;4.25;1.20;;;;;;;;;;10252081;28;20128;-68
2022/07/05 07:52:25;;;;;;;4.50;0.98;;;;;;;;;;10260667;28;20795;-67
2022/07/05 07:57:22;;;;;;;4.03;0.93;;;;;;;;;;10236502;28;20044;-67
2022/07/05 08:02:21;;;;;;;6.15;1.98;;;;;;;;;;10255618;28;20045;-67
2022/07/05 08:07:18;;;;;;;3.90;1.02;;;;;;;;;;10245630;28;20137;-67
2022/07/05 08:12:14;;;;;;;3.30;0.57;;;;;;;;;;10245714;28;20092;-67
2022/07/05 08:17:11;;;;;;;2.15;0.70;;;;;;;;;;10248180;28;20550;-67
2022/07/05 08:22:07;;;;;;;3.70;0.50;;;;;;;;;;10242051;28;20057;-67
2022/07/05 08:27:05;;;;;;;1.88;0.40;;;;;;;;;;10244724;28;20042;-67
2022/07/05 08:32:02;;;;;;;1.90;0.50;;;;;;;;;;10256247;28;20037;-67
2022/07/05 08:36:59;;;;;;;1.67;0.47;;;;;;;;;;10257486;28;20119;-67
2022/07/05 08:41:56;;;;;;;2.10;0.60;;;;;;;;;;10247929;28;20493;-67
2022/07/05 08:46:55;;;;;;;3.97;0.77;;;;;;;;;;10240819;28;20137;-67
2022/07/05 08:51:52;;;;;;;2.40;0.50;;;;;;;;;;10240322;28;20811;-67
2022/07/05 08:56:48;;;;;;;2.95;0.50;;;;;;;;;;10251553;28;20132;-67
2022/07/05 09:02:07;;;;;;;2.33;0.50;;;;;;;;;;10249711;28;20130;-67
2022/07/05 09:07:04;;;;;;;1.55;0.50;;;;;;;;;;10238628;28;20136;-67
2022/07/05 09:12:01;;;;;;;5.07;0.70;;;;;;;;;;10274216;28;20040;-67
2022/07/05 09:17:17;;;;;;;2.38;0.40;;;;;;;;;;10264294;28;20535;-68
2022/07/05 09:22:14;;;;;;;0.98;0.32;;;;;;;;;;10247481;28;20136;-67
2022/07/05 09:27:11;;;;;;;4.03;0.45;;;;;;;;;;10276030;28;20053;-67
2022/07/05 09:32:22;;;;;;;1.80;0.50;;;;;;;;;;10255244;28;21219;-67
2022/07/05 09:37:18;;;;;;;1.42;0.45;;;;;;;;;;10230521;28;20137;-67
2022/07/05 09:42:25;;;;;;;1.98;0.55;;;;;;;;;;10224917;28;20122;-67
2022/07/05 09:47:23;;;;;;;4.07;0.50;;;;;;;;;;10218090;28;20060;-67
2022/07/05 09:52:27;;;;;;;1.92;0.40;;;;;;;;;;10228306;28;20120;-67
2022/07/05 09:57:25;;;;;;;2.33;0.43;;;;;;;;;;10219874;28;20448;-67
2022/07/05 10:02:33;;;;;;;2.90;0.35;;;;;;;;;;10223633;28;20095;-67
2022/07/05 10:07:31;;;;;;;1.98;0.43;;;;;;;;;;10226288;28;20111;-67
2022/07/05 10:12:28;;;;;;;1.75;0.40;;;;;;;;;;10225170;28;20142;-66
2022/07/05 10:17:27;;;;;;;2.42;0.40;;;;;;;;;;10212531;28;20069;-66
2022/07/05 10:22:29;;;;;;;3.97;0.90;;;;;;;;;;10210737;28;20046;-67
2022/07/05 10:27:27;;;;;;;2.70;0.70;;;;;;;;;;10208465;28;20725;-68
2022/07/05 10:32:25;;;;;;;2.35;0.38;;;;;;;;;;10212450;28;20530;-68
2022/07/05 10:37:22;;;;;;;2.40;0.70;;;;;;;;;;10214322;28;20469;-68
2022/07/05 10:42:19;;;;;;;2.25;0.50;;;;;;;;;;10229857;28;20570;-68
2022/07/05 10:47:17;;;;;;;3.85;0.40;;;;;;;;;;10217006;28;20096;-68
2022/07/05 10:52:26;;;;;;;2.03;0.50;;;;;;;;;;10229521;28;20086;-68
2022/07/05 10:57:23;;;;;;;1.88;0.50;;;;;;;;;;10212351;28;20418;-68
2022/07/05 11:02:19;;;;;;;3.15;0.40;;;;;;;;;;10223046;28;20042;-68
2022/07/05 11:07:16;;;;;;;1.65;0.30;;;;;;;;;;10223066;28;20049;-68
2022/07/05 11:12:12;;;;;;;5.55;0.50;;;;;;;;;;10217062;28;20530;-68
2022/07/05 11:17:27;;;;;;;1.20;0.30;;;;;;;;;;10227712;28;20046;-68
2022/07/05 11:23:03;;;;;;;1.58;0.40;;;;;;;;;;10220467;28;20045;-68
2022/07/05 11:28:35;;;;;;;6.60;0.40;;;;;;;;;;10213997;28;20133;-65
2022/07/05 11:33:36;;;;;;;1.30;0.30;;;;;;;;;;10148603;28;20133;-66
2022/07/05 11:38:33;;;;;;;0.88;0.40;;;;;;;;;;10235136;28;21653;-66
2022/07/05 11:43:57;;;;;;;3.97;0.52;;;;;;;;;;10233928;28;20056;-66
2022/07/05 11:48:53;;;;;;;2.20;0.57;;;;;;;;;;10222959;28;20048;-67
2022/07/05 11:53:50;;;;;;;2.08;0.40;;;;;;;;;;10236393;28;20049;-66
2022/07/05 11:59:24;;;;;;;1.55;0.50;;;;;;;;;;10229604;28;20052;-66
2022/07/05 12:04:30;;;;;;;1.13;0.32;;;;;;;;;;10236936;28;20143;-65
2022/07/05 12:12:42;;;;;;;1.80;0.28;;;;;;;;;;10227265;28;20053;-66
2022/07/05 12:14:51;;;;;;;0.75;0.28;;;;;;;;;;10234467;28;20047;-65
2022/07/05 12:19:47;;;;;;;1.40;0.50;;;;;;;;;;10238529;28;20056;-65
2022/07/05 12:24:44;;;;;;;4.30;0.65;;;;;;;;;;10229095;28;20501;-66
2022/07/05 12:29:40;;;;;;;3.70;0.35;;;;;;;;;;10227100;28;20058;-66
2022/07/05 12:34:37;;;;;;;4.05;0.70;;;;;;;;;;10244694;28;20073;-65
2022/07/05 12:39:34;;;;;;;3.10;0.55;;;;;;;;;;10224209;28;20163;-66
2022/07/05 12:44:30;;;;;;;5.63;0.63;;;;;;;;;;10236261;28;20104;-66
2022/07/05 12:49:26;;;;;;;2.60;0.57;;;;;;;;;;10248225;28;20053;-68
2022/07/05 12:59:40;;;;;;;2.55;0.63;;;;;;;;;;10210060;28;20099;-67
2022/07/05 13:04:37;;;;;;;4.50;0.50;;;;;;;;;;10212734;28;20053;-68
2022/07/05 13:09:39;;;;;;;;;;;;;;;;;;10200093;28;20040;-67
2022/07/05 13:14:37;;;;;;;2.65;0.70;;;;;;;;;;10205248;28;19924;-67
2022/07/05 13:19:34;;;;;;;2.47;0.50;;;;;;;;;;10206974;28;20044;-67
2022/07/05 13:24:30;;;;;;;2.85;0.52;;;;;;;;;;10229472;28;20123;-67
2022/07/05 13:29:27;;;;;;;2.75;0.50;;;;;;;;;;10223832;28;20068;-67
2022/07/05 13:34:23;;;;;;;4.93;1.42;;;;;;;;;;10237184;28;20510;-67
2022/07/05 13:39:20;;;;;;;3.88;0.82;;;;;;;;;;10234266;28;20531;-67
2022/07/05 13:44:24;;;;;;;2.67;0.85;;;;;;;;;;10235667;28;20056;-67
2022/07/05 13:49:22;;;;;;;1.92;0.40;;;;;;;;;;10230487;28;20053;-67
2022/07/05 13:54:18;;;;;;;4.00;0.93;;;;;;;;;;10232090;28;20045;-68
2022/07/05 13:59:14;;;;;;;5.07;0.90;;;;;;;;;;10214379;28;20064;-67
2022/07/05 14:04:11;;;;;;;4.05;0.88;;;;;;;;;;10227592;28;20046;-68
2022/07/05 14:09:08;;;;;;;5.10;0.80;;;;;;;;;;10212763;28;20081;-67
2022/07/05 14:14:04;;;;;;;3.63;0.60;;;;;;;;;;10222244;28;20096;-67
2022/07/05 14:19:01;;;;;;;4.30;0.70;;;;;;;;;;10214234;28;20091;-67
2022/07/05 14:23:58;;;;;;;4.30;1.02;;;;;;;;;;10208474;28;20175;-66
2022/07/05 14:28:54;;;;;;;2.47;0.88;;;;;;;;;;10216593;28;20195;-66
2022/07/05 14:33:50;;;;;;;3.60;0.80;;;;;;;;;;10214253;28;20211;-66
2022/07/05 14:38:47;;;;;;;5.05;1.10;;;;;;;;;;10204837;28;20069;-67
2022/07/05 14:43:43;;;;;;;2.70;0.82;;;;;;;;;;10212644;28;20045;-66
2022/07/05 14:48:40;;;;;;;5.82;0.80;;;;;;;;;;10214756;28;20473;-66
2022/07/05 14:53:36;;;;;;;3.63;0.70;;;;;;;;;;10259020;28;20139;-66
2022/07/05 14:58:32;;;;;;;4.32;0.93;;;;;;;;;;10244129;28;20510;-67
2022/07/05 15:03:29;;;;;;;3.35;0.68;;;;;;;;;;10251177;28;20455;-65
2022/07/05 15:08:27;;;;;;;6.25;1.33;;;;;;;;;;10265486;28;20040;-66
2022/07/05 15:13:25;;;;;;;4.45;0.77;;;;;;;;;;10244518;28;20049;-65
2022/07/05 15:18:22;;;;;;;3.90;0.82;;;;;;;;;;10243155;28;20073;-66
2022/07/05 15:23:19;;;;;;;3.28;0.55;;;;;;;;;;10255890;28;20528;-66
2022/07/05 15:28:16;;;;;;;16.10;2.25;;;;;;;;;;10250729;28;20052;-66
2022/07/05 15:33:12;;;;;;;5.80;1.02;;;;;;;;;;10253300;28;20045;-67
2022/07/05 15:38:09;;;;;;;4.28;0.57;;;;;;;;;;10252724;28;20044;-68
2022/07/05 15:43:05;;;;;;;4.63;0.73;;;;;;;;;;10255170;28;20049;-67
2022/07/05 15:48:01;;;;;;;4.47;1.00;;;;;;;;;;10247353;28;20056;-68
2022/07/05 15:52:58;;;;;;;3.08;0.50;;;;;;;;;;10273716;28;20040;-68
2022/07/05 15:57:54;;;;;;;5.68;1.42;;;;;;;;;;10280351;28;20045;-67
2022/07/05 16:02:50;;;;;;;4.32;1.23;;;;;;;;;;10264269;28;20049;-68
2022/07/05 16:07:55;;;;;;;4.45;0.77;;;;;;;;;;10254305;28;20598;-68
2022/07/05 16:12:51;;;;;;;5.55;1.20;;;;;;;;;;10254059;28;20064;-68
2022/07/05 16:17:48;;;;;;;8.07;1.10;;;;;;;;;;10258665;28;20048;-67
2022/07/05 16:22:44;;;;;;;4.03;0.90;;;;;;;;;;10261591;28;20053;-68
2022/07/05 16:27:40;;;;;;;6.22;1.70;;;;;;;;;;10258211;28;20044;-67
2022/07/05 16:32:37;;;;;;;6.82;1.45;;;;;;;;;;10264560;28;20072;-67
2022/07/05 16:37:39;;;;;;;4.50;0.93;;;;;;;;;;10257781;28;20041;-66
2022/07/05 16:42:35;;;;;;;7.20;1.52;;;;;;;;;;10254469;28;20048;-67
2022/07/05 16:47:32;;;;;;;4.95;0.75;;;;;;;;;;10254798;28;20838;-67
2022/07/05 16:52:28;;;;;;;4.50;1.23;;;;;;;;;;10257985;28;20099;-67
2022/07/05 16:57:24;;;;;;;2.25;0.60;;;;;;;;;;10259499;28;20134;-68
2022/07/05 17:02:21;;;;;;;7.97;2.20;;;;;;;;;;10255080;28;20041;-67
2022/07/05 17:07:18;;;;;;;4.80;1.85;;;;;;;;;;10239660;28;20048;-67
2022/07/05 17:12:15;;;;;;;3.03;1.10;;;;;;;;;;10232112;28;20151;-68
2022/07/05 17:17:12;;;;;;;7.05;2.38;;;;;;;;;;10209473;28;20048;-67
2022/07/05 17:22:08;;;;;;;7.25;2.40;;;;;;;;;;10216941;28;20056;-67
2022/07/05 17:27:04;;;;;;;5.30;1.30;;;;;;;;;;10228946;28;20078;-68
2022/07/05 17:32:01;;;;;;;6.90;1.48;;;;;;;;;;10232046;28;20056;-67
2022/07/05 17:36:58;;;;;;;2.75;0.70;;;;;;;;;;10240224;28;20152;-67
2022/07/05 17:41:54;;;;;;;4.07;1.00;;;;;;;;;;10237010;28;20136;-68
2022/07/05 17:46:50;;;;;;;7.25;1.20;;;;;;;;;;10255286;28;20044;-67
2022/07/05 17:51:48;;;;;;;3.65;0.70;;;;;;;;;;10237296;28;20041;-67
2022/07/05 17:57:04;;;;;;;6.72;1.95;;;;;;;;;;10241706;28;20056;-68
2022/07/05 18:02:01;;;;;;;4.75;0.80;;;;;;;;;;10242280;28;20123;-67
2022/07/05 18:06:58;;;;;;;5.70;1.33;;;;;;;;;;10248937;28;20572;-67
2022/07/05 18:11:54;;;;;;;3.38;0.68;;;;;;;;;;10259999;28;20085;-67
2022/07/05 18:16:50;;;;;;;2.95;0.70;;;;;;;;;;10246132;28;20061;-67
2022/07/05 18:21:47;;;;;;;6.55;0.95;;;;;;;;;;10255066;28;20095;-67
2022/07/05 18:26:44;;;;;;;8.02;1.27;;;;;;;;;;10259534;28;20112;-67
2022/07/05 18:32:00;;;;;;;6.93;1.40;;;;;;;;;;10259984;28;20120;-67
2022/07/05 18:36:56;;;;;;;5.97;1.63;;;;;;;;;;10258684;28;20073;-67
2022/07/05 18:41:52;;;;;;;5.05;0.88;;;;;;;;;;10256390;28;20087;-67
2022/07/05 18:46:49;;;;;;;5.70;1.20;;;;;;;;;;10246554;28;20099;-67
2022/07/05 18:51:45;;;;;;;4.50;1.05;;;;;;;;;;10254900;28;20037;-67
2022/07/05 18:56:41;;;;;;;4.88;1.25;;;;;;;;;;10251020;28;20045;-67
2022/07/05 19:01:41;;;;;;;5.13;1.67;;;;;;;;;;10254541;28;20044;-67
2022/07/05 19:17:08;;;;;;;8.80;1.60;;;;;;;;;;10271328;28;20048;-68
2022/07/05 19:22:04;;;;;;;6.38;1.15;;;;;;;;;;10259620;28;20048;-67
2022/07/05 19:27:01;;;;;;;4.45;0.73;;;;;;;;;;10276113;28;20140;-67
2022/07/05 19:31:58;;;;;;;6.72;1.13;;;;;;;;;;10253735;28;20072;-67
2022/07/05 19:36:55;;;;;;;4.78;0.95;;;;;;;;;;10252555;28;20033;-67
2022/07/05 19:41:51;;;;;;;5.55;1.20;;;;;;;;;;10267153;28;20102;-67
2022/07/05 19:46:48;;;;;;;3.70;0.88;;;;;;;;;;10255408;28;20573;-67
2022/07/05 19:51:44;;;;;;;8.70;1.27;;;;;;;;;;10253259;28;20037;-67
2022/07/05 19:56:41;;;;;;;8.48;1.13;;;;;;;;;;10254683;28;20041;-67
2022/07/05 20:01:37;;;;;;;7.40;2.00;;;;;;;;;;10227433;28;20065;-67
2022/07/05 20:06:34;;;;;;;6.38;1.63;;;;;;;;;;10230642;28;20049;-66
2022/07/05 20:11:30;;;;;;;8.90;1.67;;;;;;;;;;10229132;28;20091;-72
2022/07/05 20:16:47;;;;;;;6.80;1.75;;;;;;;;;;10219663;28;20041;-68
2022/07/05 20:21:43;;;;;;;9.60;1.95;;;;;;;;;;10230895;28;20487;-68
2022/07/05 20:26:40;;;;;;;5.90;0.90;;;;;;;;;;10213242;28;20049;-68
2022/07/05 20:31:36;;;;;;;6.65;2.03;;;;;;;;;;10242445;28;20041;-68
2022/07/05 20:36:32;;;;;;;3.13;0.77;;;;;;;;;;10269405;28;20049;-68
2022/07/05 20:41:29;;;;;;;9.05;2.50;;;;;;;;;;10241399;28;20083;-68
2022/07/05 20:46:26;;;;;;;5.30;1.10;;;;;;;;;;10233181;28;20173;-68
2022/07/05 20:51:22;;;;;;;4.38;1.27;;;;;;;;;;10229496;28;20476;-68
2022/07/05 20:56:18;;;;;;;6.07;1.15;;;;;;;;;;10242639;28;20160;-68
2022/07/05 21:01:15;;;;;;;6.43;1.33;;;;;;;;;;10229002;28;20099;-68
2022/07/05 21:06:11;;;;;;;5.75;1.02;;;;;;;;;;10229124;28;20045;-68
2022/07/05 21:11:07;;;;;;;5.32;0.85;;;;;;;;;;10238891;28;20053;-68
2022/07/05 21:16:04;;;;;;;6.82;1.15;;;;;;;;;;10240383;28;20049;-66
2022/07/05 21:21:00;;;;;;;5.13;1.20;;;;;;;;;;10219747;28;20633;-66
2022/07/05 21:25:57;;;;;;;5.30;1.02;;;;;;;;;;10234182;28;20640;-67
2022/07/05 21:30:53;;;;;;;6.28;1.25;;;;;;;;;;10235473;28;20111;-65
2022/07/05 21:35:50;;;;;;;8.23;1.70;;;;;;;;;;10243761;28;20457;-65
2022/07/05 21:40:46;;;;;;;9.23;1.50;;;;;;;;;;10241070;28;20077;-65
2022/07/05 21:45:42;;;;;;;2.97;0.90;;;;;;;;;;10245548;28;20099;-65
2022/07/05 21:50:39;;;;;;;6.30;1.40;;;;;;;;;;10239928;28;20141;-67
2022/07/05 21:55:35;;;;;;;3.92;1.00;;;;;;;;;;10230312;28;20092;-64
2022/07/05 22:05:46;;;;;;;4.80;1.35;;;;;;;;;;10228383;28;20099;-65
2022/07/05 22:10:43;;;;;;;5.30;1.40;;;;;;;;;;10233251;28;20049;-67
2022/07/05 22:15:39;;;;;;;6.40;0.73;;;;;;;;;;10233846;28;20072;-67
2022/07/05 22:20:35;;;;;;;2.95;0.82;;;;;;;;;;10272639;28;20413;-68
2022/07/05 22:25:32;;;;;;;6.70;1.00;;;;;;;;;;10275699;28;20114;-65
2022/07/05 22:30:28;;;;;;;3.22;0.80;;;;;;;;;;10283258;28;20044;-66
2022/07/05 22:35:24;;;;;;;4.72;0.95;;;;;;;;;;10276387;28;20099;-66
2022/07/05 22:40:20;;;;;;;4.78;1.02;;;;;;;;;;10291276;28;20079;-68
2022/07/05 22:45:17;;;;;;;5.38;0.95;;;;;;;;;;10283788;28;20756;-68
2022/07/05 22:50:13;;;;;;;1.88;0.60;;;;;;;;;;10275744;28;20102;-65
2022/07/05 22:55:09;;;;;;;7.85;1.08;;;;;;;;;;10288432;28;20136;-68
2022/07/05 23:00:06;;;;;;;5.07;1.08;;;;;;;;;;10293328;28;20098;-68
2022/07/05 23:05:02;;;;;;;4.70;1.17;;;;;;;;;;10292541;28;20064;-67
2022/07/05 23:09:59;;;;;;;5.32;1.20;;;;;;;;;;10285041;28;20109;-66
2022/07/05 23:14:55;;;;;;;5.43;0.90;;;;;;;;;;10293029;28;20049;-66
2022/07/05 23:19:51;;;;;;;6.93;1.02;;;;;;;;;;10286214;28;20132;-66
2022/07/05 23:24:56;;;;;;;4.90;1.00;;;;;;;;;;10276392;28;20141;-66
2022/07/05 23:29:53;;;;;;;8.90;1.60;;;;;;;;;;10276548;28;20045;-68
2022/07/05 23:34:50;;;;;;;2.45;1.08;;;;;;;;;;10281520;28;20045;-68
2022/07/05 23:39:46;;;;;;;6.15;1.20;;;;;;;;;;10281622;28;20128;-65
2022/07/05 23:44:43;;;;;;;7.32;1.30;;;;;;;;;;10279078;28;20064;-65
2022/07/05 23:49:39;;;;;;;5.22;1.00;;;;;;;;;;10276607;28;20156;-68
2022/07/05 23:54:35;;;;;;;4.28;1.00;;;;;;;;;;10267304;28;20572;-68
2022/07/05 23:59:32;;;;;;;3.35;0.95;;;;;;;;;;10288145;28;20049;-68
